Station: Edithburgh  

  Atmospheric Gas Attenuation - ITU Rec 676-11   ----------------- dB/100km -----------------
Date Time Temp RH % AH g/m3 Dew Point Wind Direction Speed kph Gust kph Barometer mB Rainfall Since 9am 24GHz 47GHz 76GHz 122GHz 134GHz 241GHz
01/09 03:50 10.7 80 7.86 7.4 11 15 1018.4 0 18.1 25.8 38.6 101.0 92.8 318.3
01/09 03:40 11.4 77 7.9 7.5 13 17 1018.5 0 18.2 25.6 38.4 100.6 92.5 317.4
01/09 03:30 11.6 77 8 7.7 13 17 1018.6 0 18.4 25.8 38.7 101.4 93.6 321.3
01/09 03:20 11.6 78 8.11 7.9 15 19 1018.7 0 18.6 25.9 39.2 102.6 95.1 326.5
01/09 03:10 11.6 77 8 7.7 15 20 1019 0 18.4 25.8 38.7 101.5 93.6 321.4
01/09 03:00 11.3 77 7.86 7.4 15 20 1019.2 0 18.1 25.6 38.3 100.3 92.1 316.1
01/09 02:50 11.1 78 7.86 7.4 15 19 1019.4 0 18.1 25.7 38.4 100.6 92.4 317.0
01/09 02:40 11.1 78 7.86 7.4 13 19 1019.5 0 18.1 25.7 38.4 100.6 92.4 317.0
01/09 02:30 11.2 78 7.91 7.5 15 20 1019.7 0 18.2 25.8 38.6 101.1 92.9 319.0
01/09 02:20 11.4 78 8.01 7.7 15 20 1019.8 0 18.4 25.9 38.9 101.9 94.1 322.9
01/09 02:10 11.2 79 8.01 7.7 13 19 1020.1 0 18.4 25.9 39.0 102.2 94.3 323.8
01/09 02:00 11.9 76 8.05 7.8 13 19 1020.2 0 18.5 25.8 38.8 101.7 94.0 322.8
01/09 01:50 12.3 77 8.36 8.4 15 20 1020.4 0 19.1 26.2 39.9 104.6 97.7 335.7
01/09 01:40 12.4 77 8.41 8.5 17 22 1020.5 0 19.2 26.3 40.1 105.0 98.2 337.7
01/09 01:30 12.6 76 8.41 8.5 17 28 1020.5 0 19.2 26.2 40.0 104.8 98.0 336.8
01/09 01:20 12.8 73 8.18 8.1 17 26 1020.7 0 18.7 25.8 38.9 102.0 94.7 325.3
01/09 01:10 13 74 8.39 8.5 19 24 1020.8 0 19.2 26.1 39.7 104.0 97.2 334.2
01/09 01:00 12.9 78 8.79 9.2 17 24 1021 0 20.0 26.8 41.4 108.6 102.8 353.5
01/09 00:50 13 82 9.3 10 15 20 1021.1 0 21.1 27.6 43.4 114.1 109.6 377.5
01/09 00:40 13.1 88 10.04 11.2 15 24 1021.2 0 22.7 28.8 46.5 122.3 119.8 413.1
01/09 00:30 13.6 92 10.83 12.3 15 22 1021.3 0 24.4 30.0 49.7 130.7 130.2 449.7
01/09 00:20 13.3 93 10.75 12.2 13 20 1021.5 0 24.2 30.0 49.5 130.2 129.6 447.4
01/09 00:10 13.2 95 10.91 12.4 15 17 1021.5 0 24.6 30.3 50.3 132.3 132.1 456.1
01/09 00:00 12.8 96 10.75 12.2 11 17 1021.6 0 24.2 30.2 49.8 131.1 130.5 450.4
31/08 23:50 11.9 97 10.27 11.4 11 15 1021.9 0 23.3 29.7 48.3 127.0 125.1 431.3
31/08 23:40 9.5 96 8.74 8.9 11 15 1022.1 0 20.1 27.8 43.0 112.9 106.8 367.2
31/08 23:30 8 94 7.77 7.1 9 13 1022.3 0 18.1 26.6 39.7 104.0 95.1 326.2
31/08 23:20 8.1 96 7.99 7.5 9 11 1022.4 0 18.5 26.9 40.6 106.4 98.1 336.6
31/08 23:10 7.2 94 7.38 6.3 9 11 1022.7 0 17.3 26.2 38.5 100.7 90.7 310.5
31/08 23:00 7.3 94 7.43 6.4 9 11 1022.9 0 17.4 26.2 38.6 101.1 91.3 312.6
31/08 22:50 6.9 93 7.16 5.8 9 11 1023.1 0 16.8 25.9 37.7 98.6 88.0 301.1
31/08 22:40 7.2 92 7.23 6 9 11 1023.2 0 16.9 25.9 37.9 99.0 88.7 303.4
31/08 22:30 8.1 92 7.66 6.9 7 9 1023.4 0 17.8 26.4 39.2 102.7 93.6 320.7
31/08 22:20 8.5 90 7.69 7 6 9 1023.6 0 17.9 26.3 39.2 102.6 93.5 320.5
31/08 22:10 13.2 93 10.68 12.1 7 11 1023.7 0 24.1 30.0 49.4 129.9 129.0 445.3
31/08 22:00 13 92 10.43 11.7 6 9 1023.7 0 23.5 29.6 48.4 127.3 125.7 433.8
31/08 21:50 13.4 92 10.7 12.1 7 9 1023.8 0 24.1 30.0 49.3 129.8 128.9 445.1
31/08 21:40 13.5 93 10.88 12.4 11 13 1023.8 0 24.5 30.3 50.1 131.7 131.4 453.6
31/08 21:30 12.9 92 10.37 11.6 11 13 1023.9 0 23.4 29.6 48.2 126.8 125.0 431.4
31/08 21:20 12.5 93 10.23 11.4 9 13 1023.9 0 23.1 29.5 47.9 125.8 123.7 426.7
31/08 21:10 11.6 93 9.67 10.5 9 11 1023.9 0 22.0 28.8 46.0 120.7 117.1 403.5
31/08 21:00 11.3 92 9.39 10 9 11 1023.9 0 21.4 28.4 44.9 117.9 113.6 391.1
31/08 20:50 10.3 92 8.81 9.1 9 11 1024 0 20.2 27.7 43.0 112.8 106.8 367.4
31/08 20:40 9.9 91 8.5 8.5 6 9 1024 0 19.6 27.3 41.9 109.8 103.0 354.0
31/08 20:30 9.5 90 8.19 7.9 6 6 1024 0 18.9 26.9 40.8 106.9 99.2 340.7
31/08 20:20 10 90 8.46 8.4 6 6 1024.2 0 19.5 27.2 41.7 109.3 102.4 351.7
31/08 20:10 10.9 90 8.95 9.3 4 6 1024.2 0 20.5 27.8 43.3 113.5 108.0 371.5
31/08 20:00 10.5 90 8.73 8.9 6 6 1024.3 0 20.0 27.5 42.6 111.6 105.5 362.6
31/08 19:50 11.5 90 9.3 9.9 6 6 1024.4 0 21.2 28.2 44.4 116.7 112.1 385.8
31/08 19:40 11.6 89 9.25 9.9 6 6 1024.5 0 21.1 28.1 44.2 116.0 111.2 382.9
31/08 19:30 12.2 87 9.39 10.1 6 6 1024.6 0 21.3 28.1 44.4 116.7 112.3 386.8
31/08 19:20 13 87 9.87 10.9 6 7 1024.5 0 22.3 28.7 46.0 120.9 117.8 406.3
31/08 19:10 13.4 84 9.77 10.8 7 9 1024.6 0 22.1 28.4 45.4 119.2 115.8 399.3
31/08 19:00 13.7 88 10.42 11.8 7 9 1024.7 0 23.5 29.4 48.0 126.1 124.5 429.7
31/08 18:50 13 87 9.87 10.9 7 7 1024.6 0 22.3 28.7 46.0 120.9 117.9 406.3
31/08 18:40 12.6 90 9.96 11 4 9 1024.7 0 22.5 29.0 46.7 122.6 119.8 412.9
31/08 18:30 11 88 8.81 9.1 11 13 1024.8 0 20.2 27.5 42.7 111.9 105.9 364.3
31/08 18:20 11.1 87 8.76 9 11 13 1024.9 0 20.1 27.4 42.4 111.2 105.1 361.5
31/08 18:10 11.9 83 8.79 9.1 11 11 1025 0 20.1 27.2 42.1 110.4 104.4 359.2
31/08 18:00 13.6 82 9.65 10.6 4 6 1025 0 21.8 28.1 44.8 117.5 113.9 392.6
31/08 17:50 14.5 80 9.95 11.1 4 6 1025.1 0 22.4 28.4 45.5 119.6 116.7 402.5
31/08 17:40 14.9 79 10.07 11.3 4 6 1025.1 0 22.7 28.4 45.8 120.3 117.8 406.3
31/08 17:30 15.2 77 9.99 11.2 6 7 1025.2 0 22.5 28.2 45.3 119.0 116.2 400.9
31/08 17:20 16 76 10.35 11.8 4 7 1025.1 0 23.2 28.6 46.3 121.7 119.9 414.0
31/08 17:10 16 72 9.81 11 7 9 1025.1 0 22.0 27.7 44.1 115.8 112.6 388.3
31/08 17:00 16.1 72 9.87 11.1 7 11 1025.1 0 22.2 27.7 44.3 116.3 113.2 390.6
31/08 16:50 16.1 75 10.28 11.7 6 9 1025.2 0 23.0 28.4 46.0 120.8 118.8 410.1
31/08 16:40 16.1 75 10.28 11.7 7 11 1025.3 0 23.0 28.4 46.0 120.8 118.8 410.1
31/08 16:30 16.1 76 10.42 11.9 6 9 1025.4 0 23.3 28.7 46.6 122.4 120.8 416.9
31/08 16:20 16.1 76 10.42 11.9 7 15 1025.4 0 23.3 28.7 46.6 122.4 120.8 416.9
31/08 16:10 16.1 74 10.14 11.5 11 17 1025.5 0 22.7 28.2 45.4 119.3 116.9 403.5
31/08 16:00 16.3 72 9.99 11.2 11 17 1025.5 0 22.4 27.9 44.7 117.3 114.6 395.4
31/08 15:50 16.4 74 10.33 11.8 11 17 1025.7 0 23.1 28.4 46.0 120.9 119.1 411.1
31/08 15:40 16.3 73 10.13 11.5 11 17 1025.8 0 22.7 28.1 45.3 118.9 116.5 402.1
31/08 15:30 16.4 75 10.47 12 13 17 1025.9 0 23.4 28.7 46.6 122.5 121.0 417.8
31/08 15:20 16.1 73 10.01 11.3 15 20 1026 0 22.5 28.0 44.9 117.9 115.2 397.5
31/08 15:10 16 73 9.95 11.2 15 20 1026.1 0 22.3 27.9 44.7 117.4 114.6 395.2
31/08 15:00 16.1 73 10.01 11.3 15 20 1026.2 0 22.5 28.0 44.9 117.9 115.2 397.6
31/08 14:50 16 73 9.95 11.2 15 22 1026.2 0 22.3 27.9 44.7 117.4 114.6 395.2
31/08 14:40 15.8 73 9.83 11 17 20 1026.4 0 22.1 27.8 44.3 116.4 113.3 390.6
31/08 14:30 15.9 73 9.89 11.1 17 22 1026.5 0 22.2 27.9 44.5 116.9 113.9 393.0
31/08 14:20 15.9 73 9.89 11.1 17 20 1026.6 0 22.2 27.9 44.5 116.9 113.9 393.0
31/08 14:10 15.9 73 9.89 11.1 19 22 1026.8 0 22.2 27.9 44.6 117.0 114.0 393.1
31/08 14:00 16.2 75 10.34 11.8 17 22 1026.9 0 23.2 28.5 46.3 121.5 119.6 413.0
31/08 13:50 16.3 75 10.4 11.9 19 26 1027 0 23.3 28.6 46.4 122.0 120.3 415.4
31/08 13:40 15.9 74 10.02 11.3 19 24 1027.3 0 22.5 28.1 45.1 118.5 115.8 399.4
31/08 13:30 15.9 73 9.89 11.1 19 24 1027.4 0 22.2 27.9 44.6 117.0 114.0 393.3
31/08 13:20 15.9 74 10.02 11.3 19 22 1027.6 0 22.5 28.1 45.1 118.5 115.8 399.5
31/08 13:10 15.8 73 9.83 11 17 24 1027.7 0 22.1 27.9 44.4 116.6 113.4 391.0
31/08 13:00 16 73 9.95 11.2 17 20 1027.9 0 22.3 28.0 44.8 117.6 114.7 395.8
31/08 12:50 15.8 73 9.83 11 15 22 1028.2 0 22.1 27.9 44.4 116.6 113.4 391.2
31/08 12:40 15.9 74 10.02 11.3 15 20 1028.5 0 22.5 28.2 45.2 118.6 115.9 399.8
31/08 12:30 16.2 74 10.2 11.6 15 20 1028.7 0 22.9 28.4 45.8 120.2 117.9 406.9
31/08 12:20 16.3 75 10.4 11.9 13 20 1029 0 23.3 28.7 46.5 122.3 120.5 416.0
31/08 12:10 16.2 77 10.62 12.2 13 20 1029.1 0 23.7 29.1 47.5 124.9 123.7 427.2
31/08 12:00 16.3 77 10.68 12.3 15 22 1029.3 0 23.9 29.2 47.7 125.4 124.4 429.6
31/08 11:50 16.1 76 10.42 11.9 15 20 1029.4 0 23.3 28.8 46.8 122.8 121.1 418.2
31/08 11:40 16.3 76 10.54 12.1 15 20 1029.6 0 23.6 29.0 47.2 123.9 122.5 423.0
31/08 11:30 15.9 74 10.02 11.3 15 20 1029.8 0 22.5 28.2 45.2 118.7 116.0 400.2
31/08 11:20 16 75 10.22 11.6 13 19 1029.9 0 22.9 28.5 46.0 120.8 118.6 409.3

Last Refresh: 01-Sep-2026 04:00:08

Bureau of Meteorology